TAF KJXN
AMD KJXN 082111Z 0821/0918 24007KT P6SM OVC016 FM090200 31002KT P6SM OVC050 FM090300 00000KT P6SM OVC250 FM091600 14008KT P6SM BKN100=
METAR KJXN
WC KJXN
WS KJXN
WV KJXN